sensor_id;sensor_type;location;lat;lon;timestamp;pressure;altitude;pressure_sealevel;temperature;humidity
9462;BME280;4769;42.660;23.262;2023-09-19T00:01:43;94361.19;;;18.27;83.48
9462;BME280;4769;42.660;23.262;2023-09-19T00:04:11;94373.00;;;18.16;83.95
9462;BME280;4769;42.660;23.262;2023-09-19T00:06:37;94373.59;;;18.13;84.76
9462;BME280;4769;42.660;23.262;2023-09-19T00:09:03;94377.47;;;18.25;84.08
9462;BME280;4769;42.660;23.262;2023-09-19T00:11:29;94380.66;;;18.27;84.10
9462;BME280;4769;42.660;23.262;2023-09-19T00:13:54;94375.03;;;18.00;85.73
9462;BME280;4769;42.660;23.262;2023-09-19T00:16:20;94374.50;;;17.98;86.53
9462;BME280;4769;42.660;23.262;2023-09-19T00:18:46;94365.00;;;17.87;86.94
9462;BME280;4769;42.660;23.262;2023-09-19T00:21:14;94361.38;;;17.73;86.94
9462;BME280;4769;42.660;23.262;2023-09-19T00:23:40;94364.31;;;17.72;88.20
9462;BME280;4769;42.660;23.262;2023-09-19T00:26:06;94365.94;;;17.68;87.90
9462;BME280;4769;42.660;23.262;2023-09-19T00:28:32;94371.69;;;17.85;88.52
9462;BME280;4769;42.660;23.262;2023-09-19T00:30:57;94349.94;;;18.01;86.95
9462;BME280;4769;42.660;23.262;2023-09-19T00:33:23;94355.63;;;18.23;86.28
9462;BME280;4769;42.660;23.262;2023-09-19T00:35:49;94351.22;;;18.32;86.21
9462;BME280;4769;42.660;23.262;2023-09-19T00:38:17;94346.47;;;18.34;86.75
9462;BME280;4769;42.660;23.262;2023-09-19T00:40:44;94351.19;;;18.42;85.08
9462;BME280;4769;42.660;23.262;2023-09-19T00:43:09;94353.09;;;18.37;84.94
9462;BME280;4769;42.660;23.262;2023-09-19T00:45:36;94361.41;;;18.30;85.64
9462;BME280;4769;42.660;23.262;2023-09-19T00:48:03;94354.63;;;18.43;85.33
9462;BME280;4769;42.660;23.262;2023-09-19T00:50:29;94360.63;;;18.35;86.18
9462;BME280;4769;42.660;23.262;2023-09-19T00:52:55;94358.03;;;17.91;87.50
9462;BME280;4769;42.660;23.262;2023-09-19T00:55:24;94360.59;;;17.68;90.02
9462;BME280;4769;42.660;23.262;2023-09-19T00:57:50;94362.50;;;17.62;89.88
9462;BME280;4769;42.660;23.262;2023-09-19T01:00:16;94353.84;;;17.42;90.49
9462;BME280;4769;42.660;23.262;2023-09-19T01:02:42;94354.22;;;17.64;91.13
9462;BME280;4769;42.660;23.262;2023-09-19T01:05:08;94354.81;;;17.89;89.58
9462;BME280;4769;42.660;23.262;2023-09-19T01:07:34;94346.28;;;17.92;88.74
9462;BME280;4769;42.660;23.262;2023-09-19T01:10:00;94353.66;;;18.05;88.18
9462;BME280;4769;42.660;23.262;2023-09-19T01:12:47;94353.00;;;18.13;86.98
9462;BME280;4769;42.660;23.262;2023-09-19T01:15:22;94359.16;;;18.14;86.68
9462;BME280;4769;42.660;23.262;2023-09-19T01:17:58;94359.34;;;18.22;87.18
9462;BME280;4769;42.660;23.262;2023-09-19T01:20:32;94360.97;;;18.23;85.84
9462;BME280;4769;42.660;23.262;2023-09-19T01:23:12;94349.41;;;17.99;86.44
9462;BME280;4769;42.660;23.262;2023-09-19T01:25:52;94364.06;;;18.02;86.93
9462;BME280;4769;42.660;23.262;2023-09-19T01:28:43;94366.72;;;18.02;87.05
9462;BME280;4769;42.660;23.262;2023-09-19T01:31:13;94362.16;;;18.07;87.11
9462;BME280;4769;42.660;23.262;2023-09-19T01:33:56;94359.69;;;17.82;88.54
9462;BME280;4769;42.660;23.262;2023-09-19T01:36:21;94362.44;;;17.72;89.45
9462;BME280;4769;42.660;23.262;2023-09-19T01:38:47;94354.69;;;17.76;89.36
9462;BME280;4769;42.660;23.262;2023-09-19T01:41:19;94351.63;;;17.92;88.96
9462;BME280;4769;42.660;23.262;2023-09-19T01:43:49;94353.16;;;17.98;88.12
9462;BME280;4769;42.660;23.262;2023-09-19T01:46:21;94352.66;;;17.96;88.39
9462;BME280;4769;42.660;23.262;2023-09-19T01:48:54;94344.19;;;17.84;88.35
9462;BME280;4769;42.660;23.262;2023-09-19T01:51:34;94357.41;;;17.99;87.01
9462;BME280;4769;42.660;23.262;2023-09-19T01:54:06;94360.78;;;17.81;88.81
9462;BME280;4769;42.660;23.262;2023-09-19T01:56:38;94358.84;;;17.53;89.93
9462;BME280;4769;42.660;23.262;2023-09-19T01:59:09;94358.16;;;17.28;92.30
9462;BME280;4769;42.660;23.262;2023-09-19T02:01:39;94351.50;;;17.30;91.43
9462;BME280;4769;42.660;23.262;2023-09-19T02:04:05;94356.53;;;17.42;91.15
9462;BME280;4769;42.660;23.262;2023-09-19T02:06:32;94360.91;;;17.61;90.79
9462;BME280;4769;42.660;23.262;2023-09-19T02:08:58;94359.00;;;17.67;89.63
9462;BME280;4769;42.660;23.262;2023-09-19T02:11:24;94354.41;;;17.77;89.60
9462;BME280;4769;42.660;23.262;2023-09-19T02:13:50;94360.78;;;17.76;89.07
9462;BME280;4769;42.660;23.262;2023-09-19T02:16:16;94354.44;;;17.72;89.30
9462;BME280;4769;42.660;23.262;2023-09-19T02:18:45;94358.25;;;17.95;88.64
9462;BME280;4769;42.660;23.262;2023-09-19T02:21:10;94356.84;;;18.02;88.20
9462;BME280;4769;42.660;23.262;2023-09-19T02:23:36;94352.38;;;17.98;88.02
9462;BME280;4769;42.660;23.262;2023-09-19T02:26:02;94352.38;;;17.98;88.15
9462;BME280;4769;42.660;23.262;2023-09-19T02:28:27;94350.56;;;17.88;87.88
9462;BME280;4769;42.660;23.262;2023-09-19T02:30:53;94341.81;;;17.83;88.17
9462;BME280;4769;42.660;23.262;2023-09-19T02:33:19;94335.69;;;17.82;88.78
9462;BME280;4769;42.660;23.262;2023-09-19T02:35:47;94346.38;;;17.82;88.29
9462;BME280;4769;42.660;23.262;2023-09-19T02:38:13;94324.75;;;17.79;88.83
9462;BME280;4769;42.660;23.262;2023-09-19T02:40:39;94325.56;;;17.79;88.28
9462;BME280;4769;42.660;23.262;2023-09-19T02:43:05;94334.56;;;17.88;88.85
9462;BME280;4769;42.660;23.262;2023-09-19T02:45:31;94319.69;;;17.82;89.26
9462;BME280;4769;42.660;23.262;2023-09-19T02:47:56;94332.75;;;17.79;88.92
9462;BME280;4769;42.660;23.262;2023-09-19T02:50:22;94326.13;;;17.76;89.05
9462;BME280;4769;42.660;23.262;2023-09-19T02:52:51;94324.03;;;17.73;89.21
9462;BME280;4769;42.660;23.262;2023-09-19T02:55:18;94330.44;;;17.72;89.38
9462;BME280;4769;42.660;23.262;2023-09-19T02:57:46;94331.53;;;17.66;89.23
9462;BME280;4769;42.660;23.262;2023-09-19T03:00:13;94329.13;;;17.70;89.09
9462;BME280;4769;42.660;23.262;2023-09-19T03:02:39;94326.16;;;17.71;89.41
9462;BME280;4769;42.660;23.262;2023-09-19T03:05:06;94318.97;;;17.72;89.73
9462;BME280;4769;42.660;23.262;2023-09-19T03:07:31;94310.97;;;17.72;90.03
9462;BME280;4769;42.660;23.262;2023-09-19T03:10:00;94300.34;;;17.67;89.71
9462;BME280;4769;42.660;23.262;2023-09-19T03:12:26;94311.97;;;17.81;89.79
9462;BME280;4769;42.660;23.262;2023-09-19T03:14:51;94311.25;;;17.70;89.20
9462;BME280;4769;42.660;23.262;2023-09-19T03:17:17;94312.31;;;17.69;89.23
9462;BME280;4769;42.660;23.262;2023-09-19T03:19:43;94308.06;;;17.68;89.50
9462;BME280;4769;42.660;23.262;2023-09-19T03:22:08;94308.81;;;17.74;89.40
9462;BME280;4769;42.660;23.262;2023-09-19T03:24:34;94322.66;;;17.76;89.72
9462;BME280;4769;42.660;23.262;2023-09-19T03:27:03;94302.56;;;17.55;89.66
9462;BME280;4769;42.660;23.262;2023-09-19T03:29:29;94311.31;;;17.60;90.82
9462;BME280;4769;42.660;23.262;2023-09-19T03:31:55;94312.19;;;17.51;90.76
9462;BME280;4769;42.660;23.262;2023-09-19T03:34:20;94312.75;;;17.48;90.64
9462;BME280;4769;42.660;23.262;2023-09-19T03:36:46;94319.97;;;17.37;90.95
9462;BME280;4769;42.660;23.262;2023-09-19T03:39:12;94323.78;;;17.26;92.10
9462;BME280;4769;42.660;23.262;2023-09-19T03:41:38;94328.59;;;17.24;92.21
9462;BME280;4769;42.660;23.262;2023-09-19T03:44:06;94330.84;;;17.07;93.56
9462;BME280;4769;42.660;23.262;2023-09-19T03:46:32;94335.69;;;16.90;95.19
9462;BME280;4769;42.660;23.262;2023-09-19T03:48:58;94326.22;;;16.64;96.95
9462;BME280;4769;42.660;23.262;2023-09-19T03:51:23;94333.03;;;16.90;95.89
9462;BME280;4769;42.660;23.262;2023-09-19T03:53:49;94331.88;;;17.06;95.09
9462;BME280;4769;42.660;23.262;2023-09-19T03:56:15;94338.25;;;17.10;93.63
9462;BME280;4769;42.660;23.262;2023-09-19T03:58:40;94322.81;;;17.12;94.14
9462;BME280;4769;42.660;23.262;2023-09-19T04:01:09;94323.25;;;17.24;93.42
9462;BME280;4769;42.660;23.262;2023-09-19T04:03:34;94334.38;;;17.36;92.93
9462;BME280;4769;42.660;23.262;2023-09-19T04:06:00;94331.53;;;17.28;93.12
9462;BME280;4769;42.660;23.262;2023-09-19T04:08:26;94342.66;;;17.35;93.54
9462;BME280;4769;42.660;23.262;2023-09-19T04:10:52;94346.09;;;17.45;92.78
9462;BME280;4769;42.660;23.262;2023-09-19T04:13:17;94346.91;;;17.36;93.41
9462;BME280;4769;42.660;23.262;2023-09-19T04:15:43;94355.66;;;17.51;92.69
9462;BME280;4769;42.660;23.262;2023-09-19T04:18:11;94351.13;;;17.52;92.14
9462;BME280;4769;42.660;23.262;2023-09-19T04:20:37;94355.75;;;17.31;93.37
9462;BME280;4769;42.660;23.262;2023-09-19T04:23:03;94351.69;;;17.44;93.39
9462;BME280;4769;42.660;23.262;2023-09-19T04:25:28;94345.53;;;17.48;93.56
9462;BME280;4769;42.660;23.262;2023-09-19T04:27:54;94338.28;;;17.54;93.22
9462;BME280;4769;42.660;23.262;2023-09-19T04:30:20;94325.78;;;17.54;92.62
9462;BME280;4769;42.660;23.262;2023-09-19T04:32:45;94331.34;;;17.58;91.90
9462;BME280;4769;42.660;23.262;2023-09-19T04:35:14;94340.56;;;17.70;92.14
9462;BME280;4769;42.660;23.262;2023-09-19T04:37:40;94326.69;;;17.73;91.83
9462;BME280;4769;42.660;23.262;2023-09-19T04:40:07;94330.31;;;17.87;91.82
9462;BME280;4769;42.660;23.262;2023-09-19T04:42:33;94326.78;;;17.92;91.32
9462;BME280;4769;42.660;23.262;2023-09-19T04:44:59;94332.03;;;18.02;90.43
9462;BME280;4769;42.660;23.262;2023-09-19T04:47:24;94322.72;;;17.99;90.16
9462;BME280;4769;42.660;23.262;2023-09-19T04:49:50;94326.09;;;18.10;89.67
9462;BME280;4769;42.660;23.262;2023-09-19T04:52:18;94336.41;;;18.21;89.39
9462;BME280;4769;42.660;23.262;2023-09-19T04:54:47;94328.28;;;18.31;89.07
9462;BME280;4769;42.660;23.262;2023-09-19T04:57:12;94323.78;;;18.55;88.64
9462;BME280;4769;42.660;23.262;2023-09-19T04:59:38;94327.38;;;18.69;87.10
9462;BME280;4769;42.660;23.262;2023-09-19T05:02:04;94325.03;;;18.86;86.68
9462;BME280;4769;42.660;23.262;2023-09-19T05:04:30;94323.06;;;18.97;85.72
9462;BME280;4769;42.660;23.262;2023-09-19T05:06:55;94319.78;;;19.23;84.33
9462;BME280;4769;42.660;23.262;2023-09-19T05:09:24;94313.88;;;19.26;83.54
9462;BME280;4769;42.660;23.262;2023-09-19T05:11:49;94325.66;;;19.44;82.96
9462;BME280;4769;42.660;23.262;2023-09-19T05:14:15;94331.06;;;19.57;82.70
9462;BME280;4769;42.660;23.262;2023-09-19T05:16:41;94328.53;;;19.66;82.02
9462;BME280;4769;42.660;23.262;2023-09-19T05:19:06;94320.19;;;19.67;81.94
9462;BME280;4769;42.660;23.262;2023-09-19T05:21:32;94317.78;;;19.84;80.71
9462;BME280;4769;42.660;23.262;2023-09-19T05:23:58;94328.41;;;19.89;80.69
9462;BME280;4769;42.660;23.262;2023-09-19T05:26:26;94315.88;;;20.03;79.83
9462;BME280;4769;42.660;23.262;2023-09-19T05:28:51;94316.63;;;20.09;79.71
9462;BME280;4769;42.660;23.262;2023-09-19T05:31:17;94313.84;;;20.14;79.00
9462;BME280;4769;42.660;23.262;2023-09-19T05:33:43;94316.47;;;20.32;78.35
9462;BME280;4769;42.660;23.262;2023-09-19T05:36:08;94315.25;;;20.25;78.24
9462;BME280;4769;42.660;23.262;2023-09-19T05:38:34;94312.28;;;20.26;77.95
9462;BME280;4769;42.660;23.262;2023-09-19T05:41:00;94314.47;;;20.24;77.72
9462;BME280;4769;42.660;23.262;2023-09-19T05:43:28;94304.38;;;20.03;78.10
9462;BME280;4769;42.660;23.262;2023-09-19T05:45:54;94310.09;;;20.15;78.30
9462;BME280;4769;42.660;23.262;2023-09-19T05:48:19;94301.19;;;20.19;78.27
9462;BME280;4769;42.660;23.262;2023-09-19T05:50:45;94305.94;;;20.22;78.11
9462;BME280;4769;42.660;23.262;2023-09-19T05:53:10;94307.03;;;20.35;78.14
9462;BME280;4769;42.660;23.262;2023-09-19T05:55:36;94307.78;;;20.54;77.03
9462;BME280;4769;42.660;23.262;2023-09-19T05:58:02;94293.09;;;20.51;77.23
9462;BME280;4769;42.660;23.262;2023-09-19T06:00:30;94302.72;;;20.66;76.08
9462;BME280;4769;42.660;23.262;2023-09-19T06:02:58;94306.28;;;20.75;75.81
9462;BME280;4769;42.660;23.262;2023-09-19T06:05:24;94308.75;;;20.85;75.61
9462;BME280;4769;42.660;23.262;2023-09-19T06:07:50;94288.81;;;20.77;75.26
9462;BME280;4769;42.660;23.262;2023-09-19T06:10:16;94301.13;;;20.78;75.95
9462;BME280;4769;42.660;23.262;2023-09-19T06:12:42;94286.25;;;20.72;75.91
9462;BME280;4769;42.660;23.262;2023-09-19T06:15:08;94294.38;;;20.81;74.99
9462;BME280;4769;42.660;23.262;2023-09-19T06:17:37;94292.97;;;20.83;74.74
9462;BME280;4769;42.660;23.262;2023-09-19T06:20:03;94299.94;;;20.84;74.50
9462;BME280;4769;42.660;23.262;2023-09-19T06:22:29;94285.25;;;20.95;73.99
9462;BME280;4769;42.660;23.262;2023-09-19T06:24:55;94276.63;;;20.98;73.73
9462;BME280;4769;42.660;23.262;2023-09-19T06:27:20;94280.56;;;21.14;73.85
9462;BME280;4769;42.660;23.262;2023-09-19T06:29:46;94280.81;;;21.40;72.41
9462;BME280;4769;42.660;23.262;2023-09-19T06:32:12;94284.97;;;21.68;71.29
9462;BME280;4769;42.660;23.262;2023-09-19T06:34:40;94289.97;;;21.96;70.38
9462;BME280;4769;42.660;23.262;2023-09-19T06:37:06;94275.66;;;22.09;69.13
9462;BME280;4769;42.660;23.262;2023-09-19T06:39:31;94289.56;;;22.11;68.69
9462;BME280;4769;42.660;23.262;2023-09-19T06:41:57;94294.00;;;22.16;68.20
9462;BME280;4769;42.660;23.262;2023-09-19T06:44:23;94291.47;;;22.11;67.85
9462;BME280;4769;42.660;23.262;2023-09-19T06:46:49;94289.16;;;22.18;67.68
9462;BME280;4769;42.660;23.262;2023-09-19T06:49:14;94289.56;;;22.33;67.67
9462;BME280;4769;42.660;23.262;2023-09-19T06:51:43;94299.22;;;22.43;67.38
9462;BME280;4769;42.660;23.262;2023-09-19T06:54:09;94303.63;;;22.61;66.94
9462;BME280;4769;42.660;23.262;2023-09-19T06:56:35;94284.78;;;22.52;66.74
9462;BME280;4769;42.660;23.262;2023-09-19T06:59:00;94293.25;;;22.76;66.27
9462;BME280;4769;42.660;23.262;2023-09-19T07:01:26;94296.91;;;22.80;65.77
9462;BME280;4769;42.660;23.262;2023-09-19T07:03:51;94296.81;;;22.63;65.85
9462;BME280;4769;42.660;23.262;2023-09-19T07:06:17;94287.31;;;22.57;66.25
9462;BME280;4769;42.660;23.262;2023-09-19T07:08:45;94299.88;;;22.70;67.13
9462;BME280;4769;42.660;23.262;2023-09-19T07:11:11;94290.19;;;22.61;66.60
9462;BME280;4769;42.660;23.262;2023-09-19T07:13:37;94288.66;;;22.77;66.38
9462;BME280;4769;42.660;23.262;2023-09-19T07:16:03;94305.81;;;22.98;66.44
9462;BME280;4769;42.660;23.262;2023-09-19T07:18:28;94295.81;;;22.90;65.80
9462;BME280;4769;42.660;23.262;2023-09-19T07:20:57;94305.50;;;22.99;65.88
9462;BME280;4769;42.660;23.262;2023-09-19T07:23:22;94299.06;;;23.17;64.87
9462;BME280;4769;42.660;23.262;2023-09-19T07:25:56;94292.66;;;23.44;64.54
9462;BME280;4769;42.660;23.262;2023-09-19T07:28:21;94309.91;;;23.51;63.38
9462;BME280;4769;42.660;23.262;2023-09-19T07:30:47;94305.28;;;23.35;63.64
9462;BME280;4769;42.660;23.262;2023-09-19T07:33:13;94302.00;;;23.38;63.60
9462;BME280;4769;42.660;23.262;2023-09-19T07:35:39;94299.00;;;23.48;64.31
9462;BME280;4769;42.660;23.262;2023-09-19T07:38:04;94300.09;;;23.55;63.74
9462;BME280;4769;42.660;23.262;2023-09-19T07:40:30;94300.13;;;23.73;63.03
9462;BME280;4769;42.660;23.262;2023-09-19T07:42:58;94300.13;;;23.73;62.77
9462;BME280;4769;42.660;23.262;2023-09-19T07:45:24;94308.94;;;23.56;63.84
9462;BME280;4769;42.660;23.262;2023-09-19T07:47:50;94306.13;;;23.61;62.92
9462;BME280;4769;42.660;23.262;2023-09-19T07:50:17;94301.53;;;23.61;62.26
9462;BME280;4769;42.660;23.262;2023-09-19T07:52:43;94300.56;;;23.57;62.25
9462;BME280;4769;42.660;23.262;2023-09-19T07:55:09;94305.00;;;23.62;62.90
9462;BME280;4769;42.660;23.262;2023-09-19T07:57:35;94304.06;;;23.58;62.36
9462;BME280;4769;42.660;23.262;2023-09-19T08:00:04;94310.38;;;23.53;62.90
9462;BME280;4769;42.660;23.262;2023-09-19T08:02:30;94315.25;;;23.34;63.08
9462;BME280;4769;42.660;23.262;2023-09-19T08:04:59;94299.44;;;23.41;63.23
9462;BME280;4769;42.660;23.262;2023-09-19T08:07:24;94286.13;;;23.28;63.27
9462;BME280;4769;42.660;23.262;2023-09-19T08:09:50;94281.91;;;23.61;62.47
9462;BME280;4769;42.660;23.262;2023-09-19T08:12:16;94275.25;;;23.93;60.89
9462;BME280;4769;42.660;23.262;2023-09-19T08:14:41;94282.97;;;24.20;60.86
9462;BME280;4769;42.660;23.262;2023-09-19T08:17:10;94272.78;;;24.42;59.37
9462;BME280;4769;42.660;23.262;2023-09-19T08:19:35;94268.28;;;24.63;58.24
9462;BME280;4769;42.660;23.262;2023-09-19T08:22:01;94272.22;;;24.66;58.86
9462;BME280;4769;42.660;23.262;2023-09-19T08:24:28;94269.75;;;24.90;58.24
9462;BME280;4769;42.660;23.262;2023-09-19T08:26:54;94268.69;;;25.40;57.53
9462;BME280;4769;42.660;23.262;2023-09-19T08:29:20;94271.53;;;25.64;56.07
9462;BME280;4769;42.660;23.262;2023-09-19T08:31:46;94259.94;;;25.64;55.14
9462;BME280;4769;42.660;23.262;2023-09-19T08:34:14;94284.69;;;25.66;54.65
9462;BME280;4769;42.660;23.262;2023-09-19T08:36:40;94279.91;;;25.92;53.34
9462;BME280;4769;42.660;23.262;2023-09-19T08:39:05;94287.22;;;25.71;53.52
9462;BME280;4769;42.660;23.262;2023-09-19T08:41:31;94279.31;;;25.66;54.68
9462;BME280;4769;42.660;23.262;2023-09-19T08:43:58;94277.47;;;25.99;54.35
9462;BME280;4769;42.660;23.262;2023-09-19T08:46:25;94270.47;;;26.30;53.91
9462;BME280;4769;42.660;23.262;2023-09-19T08:48:58;94271.81;;;26.57;52.96
9462;BME280;4769;42.660;23.262;2023-09-19T08:51:37;94257.63;;;26.27;52.88
9462;BME280;4769;42.660;23.262;2023-09-19T08:54:07;94265.59;;;26.24;53.03
9462;BME280;4769;42.660;23.262;2023-09-19T08:56:33;94261.31;;;26.11;53.83
9462;BME280;4769;42.660;23.262;2023-09-19T08:59:04;94261.75;;;26.13;53.61
9462;BME280;4769;42.660;23.262;2023-09-19T09:01:31;94263.66;;;26.45;53.20
9462;BME280;4769;42.660;23.262;2023-09-19T09:03:57;94255.50;;;26.33;53.45
9462;BME280;4769;42.660;23.262;2023-09-19T09:06:24;94254.38;;;26.78;52.09
9462;BME280;4769;42.660;23.262;2023-09-19T09:08:53;94263.19;;;26.87;51.26
9462;BME280;4769;42.660;23.262;2023-09-19T09:11:19;94246.59;;;27.01;51.26
9462;BME280;4769;42.660;23.262;2023-09-19T09:13:45;94259.81;;;27.38;50.36
9462;BME280;4769;42.660;23.262;2023-09-19T09:16:11;94255.81;;;27.48;49.92
9462;BME280;4769;42.660;23.262;2023-09-19T09:18:37;94248.25;;;27.53;49.10
9462;BME280;4769;42.660;23.262;2023-09-19T09:21:03;94244.47;;;27.18;50.71
9462;BME280;4769;42.660;23.262;2023-09-19T09:23:28;94239.47;;;27.44;49.77
9462;BME280;4769;42.660;23.262;2023-09-19T09:25:58;94227.00;;;27.55;49.29
9462;BME280;4769;42.660;23.262;2023-09-19T09:28:25;94232.81;;;27.42;49.45
9462;BME280;4769;42.660;23.262;2023-09-19T09:30:51;94236.44;;;27.22;50.03
9462;BME280;4769;42.660;23.262;2023-09-19T09:33:17;94234.97;;;27.36;50.00
9462;BME280;4769;42.660;23.262;2023-09-19T09:35:50;94234.94;;;27.48;50.01
9462;BME280;4769;42.660;23.262;2023-09-19T09:38:16;94227.97;;;27.35;50.09
9462;BME280;4769;42.660;23.262;2023-09-19T09:40:49;94228.75;;;27.87;49.00
9462;BME280;4769;42.660;23.262;2023-09-19T09:43:28;94208.63;;;28.59;46.82
9462;BME280;4769;42.660;23.262;2023-09-19T09:46:12;94204.03;;;29.44;44.35
9462;BME280;4769;42.660;23.262;2023-09-19T09:48:38;94203.28;;;29.43;44.05
9462;BME280;4769;42.660;23.262;2023-09-19T09:51:04;94194.72;;;29.26;44.60
9462;BME280;4769;42.660;23.262;2023-09-19T09:53:30;94211.91;;;29.14;45.14
9462;BME280;4769;42.660;23.262;2023-09-19T09:56:01;94202.56;;;28.50;46.02
9462;BME280;4769;42.660;23.262;2023-09-19T09:58:29;94200.66;;;28.23;46.56
9462;BME280;4769;42.660;23.262;2023-09-19T10:00:55;94197.63;;;27.81;47.48
9462;BME280;4769;42.660;23.262;2023-09-19T10:03:21;94213.53;;;27.83;47.71
9462;BME280;4769;42.660;23.262;2023-09-19T10:05:55;94190.56;;;27.92;48.00
9462;BME280;4769;42.660;23.262;2023-09-19T10:08:21;94200.50;;;27.88;48.36
9462;BME280;4769;42.660;23.262;2023-09-19T10:10:47;94195.75;;;27.58;48.97
9462;BME280;4769;42.660;23.262;2023-09-19T10:13:13;94197.97;;;27.68;48.99
9462;BME280;4769;42.660;23.262;2023-09-19T10:15:43;94190.72;;;27.72;48.78
9462;BME280;4769;42.660;23.262;2023-09-19T10:18:10;94193.75;;;27.82;48.50
9462;BME280;4769;42.660;23.262;2023-09-19T10:20:37;94198.19;;;27.63;48.67
9462;BME280;4769;42.660;23.262;2023-09-19T10:23:06;94201.81;;;27.67;49.20
9462;BME280;4769;42.660;23.262;2023-09-19T10:25:32;94203.94;;;27.73;48.54
9462;BME280;4769;42.660;23.262;2023-09-19T10:28:00;94195.91;;;27.77;47.80
9462;BME280;4769;42.660;23.262;2023-09-19T10:30:27;94192.03;;;27.90;48.20
9462;BME280;4769;42.660;23.262;2023-09-19T10:33:00;94194.56;;;27.71;48.58
9462;BME280;4769;42.660;23.262;2023-09-19T10:35:27;94190.66;;;27.56;48.24
9462;BME280;4769;42.660;23.262;2023-09-19T10:37:54;94191.13;;;27.58;47.93
9462;BME280;4769;42.660;23.262;2023-09-19T10:40:22;94195.00;;;27.45;48.81
9462;BME280;4769;42.660;23.262;2023-09-19T10:42:50;94193.38;;;27.05;49.49
9462;BME280;4769;42.660;23.262;2023-09-19T10:45:17;94191.13;;;26.95;49.72
9462;BME280;4769;42.660;23.262;2023-09-19T10:47:43;94186.81;;;27.18;49.84
9462;BME280;4769;42.660;23.262;2023-09-19T10:50:19;94183.66;;;27.28;49.01
9462;BME280;4769;42.660;23.262;2023-09-19T10:52:45;94162.31;;;27.38;48.30
9462;BME280;4769;42.660;23.262;2023-09-19T10:55:15;94163.53;;;27.80;47.94
9462;BME280;4769;42.660;23.262;2023-09-19T10:57:44;94161.06;;;27.63;48.20
9462;BME280;4769;42.660;23.262;2023-09-19T11:00:10;94171.56;;;27.65;48.53
9462;BME280;4769;42.660;23.262;2023-09-19T11:02:36;94171.28;;;27.82;48.26
9462;BME280;4769;42.660;23.262;2023-09-19T11:05:14;94166.31;;;27.84;48.21
9462;BME280;4769;42.660;23.262;2023-09-19T11:07:57;94167.41;;;28.10;47.90
9462;BME280;4769;42.660;23.262;2023-09-19T11:10:44;94166.72;;;28.29;46.79
9462;BME280;4769;42.660;23.262;2023-09-19T11:13:24;94157.53;;;28.18;47.14
9462;BME280;4769;42.660;23.262;2023-09-19T11:16:17;94160.88;;;28.27;47.09
9462;BME280;4769;42.660;23.262;2023-09-19T11:18:53;94153.59;;;28.15;47.57
9462;BME280;4769;42.660;23.262;2023-09-19T11:21:43;94155.50;;;28.15;47.58
9462;BME280;4769;42.660;23.262;2023-09-19T11:24:32;94157.38;;;28.26;46.88
9462;BME280;4769;42.660;23.262;2023-09-19T11:27:11;94154.63;;;28.54;46.90
9462;BME280;4769;42.660;23.262;2023-09-19T11:29:37;94150.94;;;29.12;45.08
9462;BME280;4769;42.660;23.262;2023-09-19T11:32:03;94143.66;;;29.69;43.67
9462;BME280;4769;42.660;23.262;2023-09-19T11:40:28;94122.81;;;29.96;43.49
9462;BME280;4769;42.660;23.262;2023-09-19T11:42:53;94120.19;;;30.22;42.78
9462;BME280;4769;42.660;23.262;2023-09-19T11:48:16;94113.91;;;29.76;43.09
9462;BME280;4769;42.660;23.262;2023-09-19T11:50:43;94112.03;;;29.42;43.54
9462;BME280;4769;42.660;23.262;2023-09-19T11:53:11;94105.88;;;29.45;43.68
9462;BME280;4769;42.660;23.262;2023-09-19T11:55:40;94099.22;;;29.43;43.06
9462;BME280;4769;42.660;23.262;2023-09-19T11:58:07;94110.81;;;29.78;42.40
9462;BME280;4769;42.660;23.262;2023-09-19T12:00:34;94103.44;;;29.78;42.77
9462;BME280;4769;42.660;23.262;2023-09-19T12:03:07;94106.16;;;29.78;42.88
9462;BME280;4769;42.660;23.262;2023-09-19T12:05:33;94100.47;;;29.64;43.32
9462;BME280;4769;42.660;23.262;2023-09-19T12:07:59;94096.50;;;29.43;44.32
9462;BME280;4769;42.660;23.262;2023-09-19T12:10:25;94088.78;;;29.26;44.96
9462;BME280;4769;42.660;23.262;2023-09-19T12:12:53;94081.66;;;29.18;45.40
9462;BME280;4769;42.660;23.262;2023-09-19T12:15:23;94081.84;;;30.08;43.47
9462;BME280;4769;42.660;23.262;2023-09-19T12:17:48;94083.63;;;31.20;40.20
9462;BME280;4769;42.660;23.262;2023-09-19T12:20:15;94069.59;;;32.21;38.17
9462;BME280;4769;42.660;23.262;2023-09-19T12:22:41;94067.59;;;32.61;37.33
9462;BME280;4769;42.660;23.262;2023-09-19T12:25:06;94043.91;;;33.40;35.71
9462;BME280;4769;42.660;23.262;2023-09-19T12:27:41;94045.13;;;33.46;35.42
9462;BME280;4769;42.660;23.262;2023-09-19T12:30:11;94055.47;;;33.98;34.68
9462;BME280;4769;42.660;23.262;2023-09-19T12:32:37;94041.41;;;34.94;33.49
9462;BME280;4769;42.660;23.262;2023-09-19T12:35:03;94041.78;;;35.07;32.11
9462;BME280;4769;42.660;23.262;2023-09-19T12:37:29;94035.13;;;34.17;33.62
9462;BME280;4769;42.660;23.262;2023-09-19T12:40:03;94048.50;;;34.43;33.25
9462;BME280;4769;42.660;23.262;2023-09-19T12:42:30;94030.84;;;34.16;33.45
9462;BME280;4769;42.660;23.262;2023-09-19T12:44:56;94033.50;;;35.17;31.96
9462;BME280;4769;42.660;23.262;2023-09-19T12:47:24;94026.66;;;35.78;30.73
9462;BME280;4769;42.660;23.262;2023-09-19T12:50:05;94036.72;;;35.98;30.26
9462;BME280;4769;42.660;23.262;2023-09-19T12:52:35;94036.31;;;35.96;29.95
9462;BME280;4769;42.660;23.262;2023-09-19T12:55:01;94030.44;;;36.56;28.92
9462;BME280;4769;42.660;23.262;2023-09-19T12:57:27;94015.81;;;36.69;28.84
9462;BME280;4769;42.660;23.262;2023-09-19T12:59:53;94018.34;;;36.90;28.24
9462;BME280;4769;42.660;23.262;2023-09-19T13:02:18;94008.47;;;36.56;28.81
9462;BME280;4769;42.660;23.262;2023-09-19T13:04:54;94003.50;;;36.37;28.77
9462;BME280;4769;42.660;23.262;2023-09-19T13:07:41;94018.75;;;35.83;29.51
9462;BME280;4769;42.660;23.262;2023-09-19T13:10:07;94017.03;;;36.07;29.86
9462;BME280;4769;42.660;23.262;2023-09-19T13:12:37;94015.13;;;36.00;29.92
9462;BME280;4769;42.660;23.262;2023-09-19T13:15:09;94012.03;;;36.49;28.94
9462;BME280;4769;42.660;23.262;2023-09-19T13:17:42;94003.84;;;36.42;28.99
9462;BME280;4769;42.660;23.262;2023-09-19T13:20:21;94005.81;;;35.87;29.92
9462;BME280;4769;42.660;23.262;2023-09-19T13:22:46;94000.03;;;36.33;29.22